sensor_id;sensor_type;location;lat;lon;timestamp;pressure;altitude;pressure_sealevel;temperature;humidity
35778;BME280;21899;42.662;23.316;2022-09-20T00:01:22;94501.88;;;9.87;80.58
35778;BME280;21899;42.662;23.316;2022-09-20T00:03:51;94493.44;;;9.71;80.68
35778;BME280;21899;42.662;23.316;2022-09-20T00:06:20;94498.00;;;9.71;81.93
35778;BME280;21899;42.662;23.316;2022-09-20T00:08:46;94507.16;;;9.66;82.17
35778;BME280;21899;42.662;23.316;2022-09-20T00:11:15;94497.97;;;9.60;81.79
35778;BME280;21899;42.662;23.316;2022-09-20T00:13:42;94503.31;;;9.67;81.69
35778;BME280;21899;42.662;23.316;2022-09-20T00:16:11;94497.59;;;9.65;80.87
35778;BME280;21899;42.662;23.316;2022-09-20T00:18:37;94503.31;;;9.67;80.55
35778;BME280;21899;42.662;23.316;2022-09-20T00:21:03;94499.88;;;9.63;81.01
35778;BME280;21899;42.662;23.316;2022-09-20T00:23:30;94480.75;;;9.54;80.14
35778;BME280;21899;42.662;23.316;2022-09-20T00:26:01;94494.91;;;9.62;80.41
35778;BME280;21899;42.662;23.316;2022-09-20T00:28:27;94507.19;;;9.73;79.67
35778;BME280;21899;42.662;23.316;2022-09-20T00:30:54;94505.66;;;9.76;79.85
35778;BME280;21899;42.662;23.316;2022-09-20T00:33:21;94492.25;;;9.62;79.59
35778;BME280;21899;42.662;23.316;2022-09-20T00:35:47;94503.31;;;9.64;79.66
35778;BME280;21899;42.662;23.316;2022-09-20T00:38:13;94499.53;;;9.68;80.26
35778;BME280;21899;42.662;23.316;2022-09-20T00:40:40;94505.22;;;9.63;80.20
35778;BME280;21899;42.662;23.316;2022-09-20T00:43:08;94517.03;;;9.55;79.98
35778;BME280;21899;42.662;23.316;2022-09-20T00:45:34;94503.22;;;9.46;81.14
35778;BME280;21899;42.662;23.316;2022-09-20T00:53:08;94515.06;;;9.49;80.92
35778;BME280;21899;42.662;23.316;2022-09-20T00:55:39;94495.56;;;9.41;81.13
35778;BME280;21899;42.662;23.316;2022-09-20T00:58:08;94516.13;;;9.37;81.71
35778;BME280;21899;42.662;23.316;2022-09-20T01:00:33;94518.44;;;9.35;80.96
35778;BME280;21899;42.662;23.316;2022-09-20T01:03:02;94518.44;;;9.35;81.37
35778;BME280;21899;42.662;23.316;2022-09-20T01:05:31;94510.84;;;9.44;80.93
35778;BME280;21899;42.662;23.316;2022-09-20T01:07:57;94494.78;;;9.41;80.11
35778;BME280;21899;42.662;23.316;2022-09-20T01:10:22;94507.41;;;9.47;79.78
35778;BME280;21899;42.662;23.316;2022-09-20T01:12:49;94507.06;;;9.52;79.26
35778;BME280;21899;42.662;23.316;2022-09-20T01:15:16;94507.84;;;9.53;79.08
35778;BME280;21899;42.662;23.316;2022-09-20T01:17:47;94503.28;;;9.57;77.74
35778;BME280;21899;42.662;23.316;2022-09-20T01:20:16;94514.34;;;9.55;76.61
35778;BME280;21899;42.662;23.316;2022-09-20T01:27:58;94508.91;;;9.41;75.22
35778;BME280;21899;42.662;23.316;2022-09-20T01:30:27;94499.38;;;9.37;75.15
35778;BME280;21899;42.662;23.316;2022-09-20T01:33:18;94490.66;;;9.47;74.19
35778;BME280;21899;42.662;23.316;2022-09-20T01:35:49;94496.66;;;9.33;75.08
35778;BME280;21899;42.662;23.316;2022-09-20T01:38:43;94477.13;;;9.18;75.36
35778;BME280;21899;42.662;23.316;2022-09-20T02:08:55;94483.38;;;8.86;79.46
35778;BME280;21899;42.662;23.316;2022-09-20T02:11:49;94479.09;;;8.74;80.56
35778;BME280;21899;42.662;23.316;2022-09-20T02:17:54;94484.78;;;8.73;81.23
35778;BME280;21899;42.662;23.316;2022-09-20T02:42:43;94471.97;;;8.42;82.96
35778;BME280;21899;42.662;23.316;2022-09-20T02:45:36;94480.28;;;8.37;84.56
35778;BME280;21899;42.662;23.316;2022-09-20T02:48:04;94491.00;;;8.40;85.75
35778;BME280;21899;42.662;23.316;2022-09-20T02:50:39;94492.50;;;8.38;85.63
35778;BME280;21899;42.662;23.316;2022-09-20T02:53:29;94505.38;;;8.29;87.96
35778;BME280;21899;42.662;23.316;2022-09-20T02:58:46;94504.63;;;8.32;88.88
35778;BME280;21899;42.662;23.316;2022-09-20T03:06:41;94501.84;;;8.21;89.55
35778;BME280;21899;42.662;23.316;2022-09-20T03:14:33;94492.94;;;8.10;88.20
35778;BME280;21899;42.662;23.316;2022-09-20T03:25:26;94513.53;;;8.13;88.93
35778;BME280;21899;42.662;23.316;2022-09-20T03:30:51;94521.91;;;8.12;88.74
35778;BME280;21899;42.662;23.316;2022-09-20T04:03:53;94517.91;;;7.95;86.98
35778;BME280;21899;42.662;23.316;2022-09-20T04:12:21;94538.22;;;8.07;86.34
35778;BME280;21899;42.662;23.316;2022-09-20T04:22:53;94523.94;;;7.88;87.25
35778;BME280;21899;42.662;23.316;2022-09-20T04:25:27;94552.75;;;8.09;87.31
35778;BME280;21899;42.662;23.316;2022-09-20T04:28:01;94546.22;;;8.07;87.74
35778;BME280;21899;42.662;23.316;2022-09-20T04:30:34;94537.81;;;8.01;88.07
35778;BME280;21899;42.662;23.316;2022-09-20T04:33:35;94543.09;;;7.97;88.32
35778;BME280;21899;42.662;23.316;2022-09-20T04:36:23;94551.56;;;8.07;88.14
35778;BME280;21899;42.662;23.316;2022-09-20T04:39:13;94555.38;;;8.06;89.43
35778;BME280;21899;42.662;23.316;2022-09-20T04:45:06;94571.50;;;8.16;88.16
35778;BME280;21899;42.662;23.316;2022-09-20T04:55:49;94561.03;;;8.34;85.86
35778;BME280;21899;42.662;23.316;2022-09-20T04:58:44;94567.19;;;8.38;86.16
35778;BME280;21899;42.662;23.316;2022-09-20T05:29:03;94584.72;;;9.22;81.48
35778;BME280;21899;42.662;23.316;2022-09-20T05:31:43;94582.91;;;9.37;80.76
35778;BME280;21899;42.662;23.316;2022-09-20T05:34:23;94584.47;;;9.38;80.19
35778;BME280;21899;42.662;23.316;2022-09-20T05:37:03;94587.09;;;9.35;80.57
35778;BME280;21899;42.662;23.316;2022-09-20T05:39:35;94589.50;;;9.47;80.33
35778;BME280;21899;42.662;23.316;2022-09-20T05:44:49;94589.56;;;9.61;79.21
35778;BME280;21899;42.662;23.316;2022-09-20T05:47:35;94581.19;;;9.62;79.78
35778;BME280;21899;42.662;23.316;2022-09-20T05:50:34;94591.91;;;9.66;79.69
35778;BME280;21899;42.662;23.316;2022-09-20T05:52:58;94584.66;;;9.66;79.15
35778;BME280;21899;42.662;23.316;2022-09-20T05:55:29;94580.56;;;9.86;78.19
35778;BME280;21899;42.662;23.316;2022-09-20T05:58:23;94584.41;;;9.92;77.88
35778;BME280;21899;42.662;23.316;2022-09-20T06:00:57;94578.41;;;10.09;76.58
35778;BME280;21899;42.662;23.316;2022-09-20T06:06:13;94586.72;;;9.97;76.69
35778;BME280;21899;42.662;23.316;2022-09-20T06:11:52;94569.19;;;10.03;75.25
35778;BME280;21899;42.662;23.316;2022-09-20T06:14:45;94579.97;;;10.17;75.56
35778;BME280;21899;42.662;23.316;2022-09-20T06:17:36;94585.78;;;10.40;74.20
35778;BME280;21899;42.662;23.316;2022-09-20T06:22:41;94584.63;;;10.34;73.15
35778;BME280;21899;42.662;23.316;2022-09-20T06:27:40;94588.84;;;10.39;73.59
35778;BME280;21899;42.662;23.316;2022-09-20T06:30:19;94589.25;;;10.41;73.34
35778;BME280;21899;42.662;23.316;2022-09-20T06:41:31;94590.50;;;10.86;73.34
35778;BME280;21899;42.662;23.316;2022-09-20T06:44:00;94585.94;;;11.04;72.84
35778;BME280;21899;42.662;23.316;2022-09-20T06:46:27;94592.81;;;11.19;73.15
35778;BME280;21899;42.662;23.316;2022-09-20T06:48:54;94582.09;;;11.22;72.07
35778;BME280;21899;42.662;23.316;2022-09-20T06:51:21;94580.97;;;11.27;71.33
35778;BME280;21899;42.662;23.316;2022-09-20T06:53:47;94593.56;;;11.51;70.87
35778;BME280;21899;42.662;23.316;2022-09-20T06:56:24;94592.03;;;11.29;70.89
35778;BME280;21899;42.662;23.316;2022-09-20T06:58:51;94592.44;;;11.38;69.81
35778;BME280;21899;42.662;23.316;2022-09-20T07:01:17;94595.13;;;11.48;69.71
35778;BME280;21899;42.662;23.316;2022-09-20T07:03:43;94593.19;;;11.56;69.06
35778;BME280;21899;42.662;23.316;2022-09-20T07:06:09;94593.22;;;11.38;70.87
35778;BME280;21899;42.662;23.316;2022-09-20T07:08:35;94605.44;;;11.57;69.41
35778;BME280;21899;42.662;23.316;2022-09-20T07:11:09;94608.50;;;11.55;69.09
